createdAt,value
2022-09-14T00:00:38.198Z,97777.47
2022-09-14T00:03:05.343Z,97777.66
2022-09-14T00:05:32.511Z,97773.56
2022-09-14T00:07:59.509Z,97780.63
2022-09-14T00:10:26.575Z,97783.44
2022-09-14T00:12:53.569Z,97779.13
2022-09-14T00:15:20.560Z,97768.81
2022-09-14T00:17:47.636Z,97760.31
2022-09-14T00:20:14.693Z,97754.22
2022-09-14T00:22:41.862Z,97746.53
2022-09-14T00:25:08.985Z,97741.47
2022-09-14T00:27:36.069Z,97737.03
2022-09-14T00:30:03.074Z,97736.38
2022-09-14T00:32:30.124Z,97728.50
2022-09-14T00:34:57.136Z,97730.50
2022-09-14T00:37:24.198Z,97728.84
2022-09-14T00:39:51.438Z,97727.22
2022-09-14T00:42:19.582Z,97735.09
2022-09-14T00:44:46.621Z,97733.47
2022-09-14T00:47:13.640Z,97723.97
2022-09-14T00:49:40.807Z,97723.97
2022-09-14T00:52:10.857Z,97726.72
2022-09-14T00:54:37.938Z,97730.34
2022-09-14T00:57:04.974Z,97736.41
2022-09-14T00:59:31.982Z,97729.53
2022-09-14T01:01:59.063Z,97723.47
2022-09-14T01:04:26.355Z,97718.38
2022-09-14T01:06:53.368Z,97718.38
2022-09-14T01:09:20.363Z,97707.91
2022-09-14T01:11:51.446Z,97705.44
2022-09-14T01:14:18.888Z,97695.97
2022-09-14T01:16:45.957Z,97677.59
2022-09-14T01:19:13.352Z,97676.75
2022-09-14T01:21:41.234Z,97658.59
2022-09-14T01:24:08.493Z,97653.34
2022-09-14T01:26:35.954Z,97654.34
2022-09-14T01:29:03.077Z,97659.56
2022-09-14T01:31:30.169Z,97656.94
2022-09-14T01:33:57.194Z,97663.16
2022-09-14T01:36:24.208Z,97670.22
2022-09-14T01:38:51.272Z,97673.66
2022-09-14T01:41:18.326Z,97672.84
2022-09-14T01:43:45.326Z,97677.25
2022-09-14T01:46:12.417Z,97683.50
2022-09-14T01:48:39.509Z,97676.44
2022-09-14T01:51:06.586Z,97679.88
2022-09-14T01:53:34.818Z,97676.63
2022-09-14T01:56:01.863Z,97680.06
2022-09-14T01:58:28.878Z,97674.00
2022-09-14T02:00:56.759Z,97673.16
2022-09-14T02:03:23.855Z,97666.16
2022-09-14T02:05:51.139Z,97660.25
2022-09-14T02:08:18.160Z,97658.44
2022-09-14T02:10:45.211Z,97664.50
2022-09-14T02:13:12.336Z,97657.63
2022-09-14T02:15:39.359Z,97661.06
2022-09-14T02:18:06.415Z,97661.22
2022-09-14T02:20:33.432Z,97648.94
2022-09-14T02:23:00.444Z,97648.94
2022-09-14T02:25:27.475Z,97650.75
2022-09-14T02:27:54.490Z,97646.50
2022-09-14T02:30:21.484Z,97635.16
2022-09-14T02:32:48.479Z,97638.63
2022-09-14T02:35:15.473Z,97634.34
2022-09-14T02:37:42.478Z,97630.91
2022-09-14T02:40:09.525Z,97615.19
2022-09-14T02:42:37.204Z,97620.44
2022-09-14T02:45:04.276Z,97611.75
2022-09-14T02:47:31.374Z,97602.06
2022-09-14T02:49:58.364Z,97597.81
2022-09-14T02:52:25.364Z,97589.97
2022-09-14T02:54:52.356Z,97582.09
2022-09-14T02:57:19.349Z,97576.03
2022-09-14T02:59:46.496Z,97578.66
2022-09-14T03:02:13.640Z,97565.69
2022-09-14T03:04:40.735Z,97573.56
2022-09-14T03:07:08.735Z,97570.94
2022-09-14T03:09:35.741Z,97569.97
2022-09-14T03:12:02.751Z,97575.22
2022-09-14T03:14:29.785Z,97595.34
2022-09-14T03:16:56.850Z,97603.41
2022-09-14T03:19:23.867Z,97624.38
2022-09-14T03:21:50.864Z,97627.81
2022-09-14T03:24:17.855Z,97643.53
2022-09-14T03:26:45.855Z,97658.28
2022-09-14T03:29:12.837Z,97666.31
2022-09-14T03:31:39.907Z,97679.44
2022-09-14T03:34:06.955Z,97685.66
2022-09-14T03:36:33.948Z,97689.91
2022-09-14T03:39:01.939Z,97679.63
2022-09-14T03:41:28.981Z,97669.94
2022-09-14T03:43:56.125Z,97663.03
2022-09-14T03:46:23.181Z,97655.19
2022-09-14T03:48:50.265Z,97646.50
2022-09-14T03:51:17.288Z,97650.94
2022-09-14T03:53:45.170Z,97645.69
2022-09-14T03:56:12.733Z,97636.00
2022-09-14T03:58:39.735Z,97624.72
2022-09-14T04:01:06.832Z,97622.09
2022-09-14T04:03:33.847Z,97608.97
2022-09-14T04:06:00.895Z,97602.94
2022-09-14T04:08:27.948Z,97586.38
2022-09-14T04:10:54.978Z,97575.09
2022-09-14T04:13:21.967Z,97565.41
2022-09-14T04:15:49.012Z,97568.22
2022-09-14T04:18:16.036Z,97597.06
2022-09-14T04:20:43.185Z,97623.09
2022-09-14T04:23:10.198Z,97628.31
2022-09-14T04:25:37.191Z,97626.53
2022-09-14T04:28:19.711Z,97614.41
2022-09-14T04:30:47.683Z,97604.91
2022-09-14T04:33:14.689Z,97590.16
2022-09-14T04:35:41.690Z,97586.72
2022-09-14T04:38:08.686Z,97592.78
2022-09-14T04:40:35.723Z,97591.16
2022-09-14T04:43:02.711Z,97594.59
2022-09-14T04:45:29.791Z,97585.91
2022-09-14T04:47:56.831Z,97555.44
2022-09-14T04:50:23.832Z,97540.53
2022-09-14T04:52:50.896Z,97547.56
2022-09-14T04:55:17.967Z,97571.97
2022-09-14T04:57:44.959Z,97585.91
2022-09-14T05:00:11.958Z,97587.72
2022-09-14T05:02:39.141Z,97576.72
2022-09-14T05:05:07.178Z,97567.84
2022-09-14T05:07:34.318Z,97565.69
2022-09-14T05:10:01.498Z,97570.63
2022-09-14T05:12:28.683Z,97560.78
2022-09-14T05:14:55.865Z,97560.78
2022-09-14T05:17:22.997Z,97562.59
2022-09-14T05:19:50.174Z,97549.94
2022-09-14T05:22:17.497Z,97544.69
2022-09-14T05:24:44.647Z,97555.34
2022-09-14T05:27:11.779Z,97560.78
2022-09-14T05:29:40.354Z,97555.84
2022-09-14T05:32:07.479Z,97562.69
2022-09-14T05:34:34.967Z,97550.06
2022-09-14T05:37:02.277Z,97544.19
2022-09-14T05:39:29.473Z,97527.47
2022-09-14T05:41:56.675Z,97517.44
2022-09-14T05:44:23.895Z,97506.97
2022-09-14T05:46:51.858Z,97507.44
2022-09-14T05:49:19.111Z,97503.81
2022-09-14T05:51:46.242Z,97500.38
2022-09-14T05:54:15.551Z,97504.81
2022-09-14T05:56:42.744Z,97508.06
2022-09-14T05:59:10.993Z,97497.41
2022-09-14T06:01:38.135Z,97499.03
2022-09-14T06:04:05.364Z,97491.16
2022-09-14T06:06:32.550Z,97480.66
2022-09-14T06:08:59.745Z,97484.91
2022-09-14T06:11:26.973Z,97492.63
2022-09-14T06:13:54.522Z,97488.19
2022-09-14T06:16:21.727Z,97485.38
2022-09-14T06:18:48.894Z,97477.38
2022-09-14T06:21:16.874Z,97472.94
2022-09-14T06:23:44.120Z,97481.78
2022-09-14T06:26:11.322Z,97477.38
2022-09-14T06:28:38.397Z,97467.50
2022-09-14T06:31:07.694Z,97470.94
2022-09-14T06:33:34.956Z,97466.69
2022-09-14T06:36:02.132Z,97465.88
2022-09-14T06:38:29.225Z,97462.09
2022-09-14T06:40:57.193Z,97466.69
2022-09-14T06:43:24.299Z,97459.63
2022-09-14T06:45:51.398Z,97462.25
2022-09-14T06:48:18.583Z,97464.06
2022-09-14T06:50:45.931Z,97474.56
2022-09-14T06:53:13.170Z,97472.94
2022-09-14T06:55:40.408Z,97475.56
2022-09-14T06:58:09.602Z,97487.84
2022-09-14T07:00:36.832Z,97481.78
2022-09-14T07:03:04.058Z,97480.00
2022-09-14T07:05:31.206Z,97478.34
2022-09-14T07:07:58.355Z,97482.59
2022-09-14T07:10:28.211Z,97486.03
2022-09-14T07:12:55.483Z,97485.22
2022-09-14T07:15:22.641Z,97488.81
2022-09-14T07:17:49.803Z,97488.19
2022-09-14T07:20:17.003Z,97484.09
2022-09-14T07:22:44.150Z,97479.66
2022-09-14T07:25:11.525Z,97479.88
2022-09-14T07:27:39.634Z,97479.88
2022-09-14T07:30:06.741Z,97476.44
2022-09-14T07:32:33.832Z,97474.63
2022-09-14T07:35:01.139Z,97474.63
2022-09-14T07:37:28.310Z,97473.00
2022-09-14T07:39:55.596Z,97473.81
2022-09-14T07:42:22.931Z,97479.03
2022-09-14T07:44:50.094Z,97476.44
2022-09-14T07:47:17.208Z,97476.44
2022-09-14T07:49:44.327Z,97484.28
2022-09-14T07:52:11.409Z,97492.16
2022-09-14T07:54:38.575Z,97486.91
2022-09-14T07:57:05.695Z,97484.91
2022-09-14T07:59:37.229Z,97480.34
2022-09-14T08:02:04.969Z,97486.38
2022-09-14T08:04:32.167Z,97490.81
2022-09-14T08:06:59.246Z,97488.00
2022-09-14T08:09:26.972Z,97494.06
2022-09-14T08:11:54.030Z,97494.91
2022-09-14T08:14:21.155Z,97489.81
2022-09-14T08:16:48.478Z,97489.81
2022-09-14T08:19:16.711Z,97491.63
2022-09-14T08:21:46.855Z,97488.19
2022-09-14T08:24:14.689Z,97487.66
2022-09-14T08:26:41.988Z,97484.22
2022-09-14T08:29:09.137Z,97495.53
2022-09-14T08:31:36.296Z,97495.19
2022-09-14T08:34:03.801Z,97497.81
2022-09-14T08:36:31.509Z,97496.00
2022-09-14T08:38:59.193Z,97495.19
2022-09-14T08:41:26.338Z,97494.53
2022-09-14T08:43:53.569Z,97495.53
2022-09-14T08:46:20.715Z,97493.09
2022-09-14T08:48:48.599Z,97485.03
2022-09-14T08:51:15.690Z,97479.34
2022-09-14T08:53:42.870Z,97487.66
2022-09-14T08:56:10.123Z,97492.75
2022-09-14T08:58:43.954Z,97493.38
2022-09-14T09:01:13.554Z,97492.38
2022-09-14T09:03:40.751Z,97500.25
2022-09-14T09:06:08.030Z,97495.81
2022-09-14T09:08:35.116Z,97503.69
2022-09-14T09:11:02.278Z,97509.59
2022-09-14T09:13:29.435Z,97495.66
2022-09-14T09:15:56.718Z,97505.34
2022-09-14T09:18:23.947Z,97510.41
2022-09-14T09:20:51.050Z,97512.22
2022-09-14T09:23:18.191Z,97517.47
2022-09-14T09:25:45.286Z,97510.59
2022-09-14T09:28:12.385Z,97515.19
2022-09-14T09:30:40.886Z,97516.19
2022-09-14T09:33:08.120Z,97524.06
2022-09-14T09:35:35.212Z,97524.22
2022-09-14T09:38:02.317Z,97524.06
2022-09-14T09:40:29.745Z,97531.72
2022-09-14T09:42:56.959Z,97530.75
2022-09-14T09:45:24.089Z,97538.63
2022-09-14T09:47:51.239Z,97540.25
2022-09-14T09:50:18.451Z,97541.06
2022-09-14T09:52:45.567Z,97541.88
2022-09-14T09:55:13.130Z,97553.53
2022-09-14T09:57:40.798Z,97557.00
2022-09-14T10:00:07.979Z,97561.06
2022-09-14T10:02:35.223Z,97557.47
2022-09-14T10:05:02.502Z,97563.53
2022-09-14T10:07:29.692Z,97565.34
2022-09-14T10:09:56.780Z,97563.53
2022-09-14T10:12:24.010Z,97563.53
2022-09-14T10:14:51.306Z,97558.28
2022-09-14T10:17:18.466Z,97556.47
2022-09-14T10:19:45.532Z,97546.97
2022-09-14T10:22:16.675Z,97545.63
2022-09-14T10:24:44.390Z,97534.47
2022-09-14T10:27:11.482Z,97525.47
2022-09-14T10:29:38.675Z,97518.59
2022-09-14T10:32:05.939Z,97528.09
2022-09-14T10:34:33.924Z,97523.66
2022-09-14T10:37:01.000Z,97517.59
2022-09-14T10:39:28.199Z,97534.13
2022-09-14T10:41:55.302Z,97537.75
2022-09-14T10:44:22.860Z,97536.09
2022-09-14T10:46:50.645Z,97533.47
2022-09-14T10:49:20.697Z,97539.56
2022-09-14T10:51:47.829Z,97527.44
2022-09-14T10:54:15.116Z,97511.88
2022-09-14T10:56:42.287Z,97510.25
2022-09-14T10:59:09.420Z,97511.06
2022-09-14T11:01:36.691Z,97508.25
2022-09-14T11:04:03.826Z,97510.72
2022-09-14T11:06:30.992Z,97512.34
2022-09-14T11:08:58.083Z,97504.47
2022-09-14T11:11:25.129Z,97496.59
2022-09-14T11:13:52.226Z,97492.97
2022-09-14T11:16:19.340Z,97497.41
2022-09-14T11:18:46.463Z,97489.34
2022-09-14T11:21:13.642Z,97486.72
2022-09-14T11:23:40.739Z,97499.03
2022-09-14T11:26:07.789Z,97506.91
2022-09-14T11:28:35.102Z,97495.41
2022-09-14T11:31:02.276Z,97491.00
2022-09-14T11:33:31.383Z,97485.75
2022-09-14T11:35:58.823Z,97487.38
2022-09-14T11:38:25.941Z,97479.50
2022-09-14T11:40:53.116Z,97480.31
2022-09-14T11:43:20.225Z,97477.03
2022-09-14T11:45:47.315Z,97469.34
2022-09-14T11:48:41.335Z,97464.94
2022-09-14T11:51:01.503Z,97464.94
2022-09-14T11:53:29.247Z,97464.13
2022-09-14T11:55:56.271Z,97456.25
2022-09-14T11:58:23.680Z,97452.00
2022-09-14T12:00:50.738Z,97447.56
2022-09-14T12:03:18.049Z,97453.44
2022-09-14T12:05:45.324Z,97460.34
2022-09-14T12:08:12.373Z,97455.09
2022-09-14T12:10:42.795Z,97453.28
2022-09-14T12:13:12.395Z,97444.59
2022-09-14T12:15:41.167Z,97447.03
2022-09-14T12:18:08.360Z,97450.66
2022-09-14T12:20:35.511Z,97447.84
2022-09-14T12:23:02.586Z,97449.50
2022-09-14T12:25:32.157Z,97452.91
2022-09-14T12:27:59.255Z,97454.53
2022-09-14T12:30:26.352Z,97447.69
2022-09-14T12:32:53.498Z,97445.06
2022-09-14T12:35:20.544Z,97445.06
2022-09-14T12:37:47.800Z,97444.06
2022-09-14T12:40:14.999Z,97450.91
2022-09-14T12:42:42.173Z,97449.91
2022-09-14T12:45:09.247Z,97448.94
2022-09-14T12:47:36.441Z,97447.13
2022-09-14T12:50:03.524Z,97463.69
2022-09-14T12:52:30.614Z,97478.44
2022-09-14T12:54:57.685Z,97469.59
2022-09-14T12:57:24.782Z,97463.34
2022-09-14T12:59:51.869Z,97452.19
2022-09-14T13:02:19.221Z,97459.91
2022-09-14T13:04:48.553Z,97460.72
2022-09-14T13:07:15.810Z,97454.66
2022-09-14T13:09:42.910Z,97449.56
2022-09-14T13:12:10.162Z,97440.72
2022-09-14T13:14:37.341Z,97446.59
2022-09-14T13:17:04.697Z,97439.06
2022-09-14T13:19:31.894Z,97439.88
2022-09-14T13:21:59.031Z,97445.78
2022-09-14T13:24:26.227Z,97434.28
2022-09-14T13:26:53.384Z,97438.72
2022-09-14T13:29:20.780Z,97443.81
2022-09-14T13:31:48.085Z,97435.75
2022-09-14T13:34:15.287Z,97436.59
2022-09-14T13:36:42.498Z,97441.00
2022-09-14T13:39:09.774Z,97433.13
2022-09-14T13:41:37.006Z,97437.41
2022-09-14T13:44:04.152Z,97423.63
2022-09-14T13:46:31.323Z,97425.44
2022-09-14T13:48:58.645Z,97408.69
2022-09-14T13:51:25.977Z,97403.94
2022-09-14T13:53:53.373Z,97399.00
2022-09-14T13:56:20.572Z,97392.78
2022-09-14T13:58:47.742Z,97378.22
2022-09-14T14:01:14.912Z,97380.63
2022-09-14T14:03:42.154Z,97385.88
2022-09-14T14:06:09.247Z,97378.00
2022-09-14T14:08:36.454Z,97389.16
2022-09-14T14:11:03.668Z,97393.59
2022-09-14T14:13:31.768Z,97391.78
2022-09-14T14:15:59.337Z,97386.53
2022-09-14T14:18:26.512Z,97389.16
2022-09-14T14:20:53.639Z,97378.50
2022-09-14T14:23:21.757Z,97378.66
2022-09-14T14:25:49.062Z,97373.25
2022-09-14T14:28:16.249Z,97359.47
2022-09-14T14:30:43.609Z,97363.75
2022-09-14T14:33:10.828Z,97362.09
2022-09-14T14:35:37.967Z,97356.03
2022-09-14T14:38:05.040Z,97350.16
2022-09-14T14:40:33.503Z,97349.50
2022-09-14T14:43:01.750Z,97363.91
2022-09-14T14:45:35.399Z,97391.63
2022-09-14T14:48:03.485Z,97403.44
2022-09-14T14:50:30.708Z,97416.41
2022-09-14T14:52:58.679Z,97428.88
2022-09-14T14:55:27.521Z,97436.59
2022-09-14T14:57:54.588Z,97428.38
2022-09-14T15:00:21.667Z,97419.50
2022-09-14T15:02:49.128Z,97419.50
2022-09-14T15:05:18.575Z,97392.44
2022-09-14T15:07:45.846Z,97367.00
2022-09-14T15:24:29.495Z,97356.50
2022-09-14T15:26:57.744Z,97349.44
2022-09-14T15:29:24.988Z,97363.38
2022-09-14T15:31:52.313Z,97366.84
2022-09-14T15:34:19.686Z,97370.91
2022-09-14T15:36:53.135Z,97392.69
2022-09-14T15:39:20.519Z,97383.84
2022-09-14T15:41:47.785Z,97369.09
2022-09-14T15:44:15.848Z,97364.66
2022-09-14T15:46:54.047Z,97360.41
2022-09-14T15:49:21.431Z,97366.47
2022-09-14T15:51:48.895Z,97376.97
2022-09-14T15:54:16.152Z,97380.41
2022-09-14T15:56:43.398Z,97369.91
2022-09-14T15:59:10.714Z,97355.97
2022-09-14T16:01:38.216Z,97355.97
2022-09-14T16:04:09.529Z,97348.09
2022-09-14T16:06:38.779Z,97347.28
2022-09-14T16:09:06.054Z,97338.44
2022-09-14T16:11:33.399Z,97336.59
2022-09-14T16:14:01.010Z,97344.47
2022-09-14T16:16:28.260Z,97354.97
2022-09-14T16:18:56.441Z,97363.66
2022-09-14T16:21:23.676Z,97370.72
2022-09-14T16:23:51.161Z,97370.91
2022-09-14T16:26:18.500Z,97364.66
2022-09-14T16:28:45.734Z,97351.72
2022-09-14T16:31:13.007Z,97346.28
2022-09-14T16:33:40.365Z,97346.47
2022-09-14T16:36:07.811Z,97339.94
2022-09-14T16:38:37.558Z,97339.13
2022-09-14T16:41:07.393Z,97330.63
2022-09-14T16:43:34.631Z,97334.88
2022-09-14T16:46:01.966Z,97328.81
2022-09-14T16:48:30.274Z,97321.78
2022-09-14T16:50:57.567Z,97312.88
2022-09-14T16:53:25.460Z,97314.72
2022-09-14T16:55:52.684Z,97310.28
2022-09-14T16:58:20.344Z,97325.19
2022-09-14T17:00:47.907Z,97328.63
2022-09-14T17:03:15.182Z,97329.81
2022-09-14T17:05:42.419Z,97333.59
2022-09-14T17:08:09.650Z,97325.72
2022-09-14T17:10:37.019Z,97325.06
2022-09-14T17:13:04.318Z,97336.38
2022-09-14T17:15:31.593Z,97332.94
2022-09-14T17:17:58.860Z,97335.56
2022-09-14T17:20:26.100Z,97331.31
2022-09-14T17:22:54.100Z,97335.75
2022-09-14T17:25:24.914Z,97333.94
2022-09-14T17:27:52.221Z,97332.13
2022-09-14T17:30:19.519Z,97333.94
2022-09-14T17:32:46.779Z,97349.69
2022-09-14T17:35:14.211Z,97357.72
2022-09-14T17:37:41.474Z,97357.72
2022-09-14T17:40:10.932Z,97352.66
2022-09-14T17:42:38.209Z,97357.72
2022-09-14T17:45:06.637Z,97357.72
2022-09-14T17:47:33.983Z,97357.91
2022-09-14T17:50:01.742Z,97355.28
2022-09-14T17:52:29.134Z,97361.16
2022-09-14T17:54:56.348Z,97353.47
2022-09-14T17:57:24.328Z,97346.63
2022-09-14T17:59:51.578Z,97346.63
2022-09-14T18:02:20.280Z,97347.22
2022-09-14T18:04:48.631Z,97353.47
2022-09-14T18:07:18.631Z,97368.22
2022-09-14T18:09:45.909Z,97360.53
2022-09-14T18:12:16.021Z,97360.53
2022-09-14T18:14:43.263Z,97368.22
2022-09-14T18:17:10.601Z,97360.34
2022-09-14T18:19:37.905Z,97361.34
2022-09-14T18:22:07.655Z,97366.78
2022-09-14T18:24:34.872Z,97368.56
2022-09-14T18:27:02.078Z,97368.75
2022-09-14T18:29:30.325Z,97375.03
2022-09-14T18:31:57.729Z,97381.28
2022-09-14T18:34:25.125Z,97387.31
2022-09-14T18:37:17.282Z,97386.31
2022-09-14T18:39:44.797Z,97383.69
2022-09-14T18:42:12.178Z,97385.50
2022-09-14T18:44:39.656Z,97392.38
2022-09-14T18:47:11.720Z,97391.56
2022-09-14T18:49:38.977Z,97394.19
2022-09-14T18:52:06.350Z,97397.63
2022-09-14T18:54:36.258Z,97398.44
2022-09-14T18:57:03.496Z,97404.50
2022-09-14T18:59:31.420Z,97406.31
2022-09-14T19:02:08.064Z,97403.69
2022-09-14T19:04:35.383Z,97406.50
2022-09-14T19:07:02.655Z,97410.75
2022-09-14T19:09:29.916Z,97413.38
2022-09-14T19:12:00.623Z,97402.88
2022-09-14T19:14:27.977Z,97401.25
2022-09-14T19:16:55.238Z,97403.88
2022-09-14T19:19:23.445Z,97389.94
2022-09-14T19:21:50.778Z,97390.91
2022-09-14T19:24:18.073Z,97389.13
2022-09-14T19:26:45.726Z,97393.19
2022-09-14T19:29:13.092Z,97393.38
2022-09-14T19:31:40.334Z,97383.06
2022-09-14T19:34:07.688Z,97380.44
2022-09-14T19:36:35.101Z,97389.94
2022-09-14T19:39:02.304Z,97388.28
2022-09-14T19:41:29.635Z,97389.13
2022-09-14T19:43:57.062Z,97390.09
2022-09-14T19:46:24.714Z,97392.72
2022-09-14T19:48:52.107Z,97392.72
2022-09-14T19:51:19.341Z,97397.38
2022-09-14T19:53:46.580Z,97400.34
2022-09-14T19:56:13.893Z,97400.53
2022-09-14T19:58:41.184Z,97404.94
2022-09-14T20:01:08.652Z,97407.75
2022-09-14T20:03:37.131Z,97407.09
2022-09-14T20:06:04.382Z,97413.34
2022-09-14T20:08:31.589Z,97405.66
2022-09-14T20:10:58.880Z,97404.84
2022-09-14T20:13:26.143Z,97403.38
2022-09-14T20:15:53.459Z,97402.72
2022-09-14T20:18:20.789Z,97408.81
2022-09-14T20:20:48.299Z,97404.53
2022-09-14T20:23:15.531Z,97406.53
2022-09-14T20:25:42.744Z,97399.66
2022-09-14T20:28:09.967Z,97394.59
2022-09-14T20:30:37.345Z,97398.84
2022-09-14T20:33:04.571Z,97384.28
2022-09-14T20:35:31.868Z,97384.28
2022-09-14T20:38:00.676Z,97392.31
2022-09-14T20:40:27.962Z,97377.56
2022-09-14T20:42:55.221Z,97381.19
2022-09-14T20:45:22.598Z,97383.00
2022-09-14T20:47:49.840Z,97393.50
2022-09-14T20:50:17.091Z,97398.75
2022-09-14T20:52:44.434Z,97397.09
2022-09-14T20:55:11.724Z,97408.59
2022-09-14T20:57:39.008Z,97393.84
2022-09-14T21:00:06.432Z,97386.78
2022-09-14T21:02:33.770Z,97392.03
2022-09-14T21:05:01.092Z,97392.19
2022-09-14T21:07:28.403Z,97390.41
2022-09-14T21:09:55.844Z,97389.56
2022-09-14T21:12:23.239Z,97380.91
2022-09-14T21:14:50.506Z,97380.09
2022-09-14T21:17:18.378Z,97376.66
2022-09-14T21:19:45.648Z,97375.84
2022-09-14T21:22:12.924Z,97371.59
2022-09-14T21:24:40.235Z,97374.22
2022-09-14T21:27:07.919Z,97373.41
2022-09-14T21:29:35.162Z,97377.81
2022-09-14T21:32:06.843Z,97377.00
2022-09-14T21:34:36.061Z,97386.69
2022-09-14T21:37:03.288Z,97389.28
2022-09-14T21:39:30.563Z,97394.53
2022-09-14T21:41:59.424Z,97388.47
2022-09-14T21:44:26.859Z,97378.19
2022-09-14T21:46:54.118Z,97378.19
2022-09-14T21:49:24.431Z,97381.78
2022-09-14T21:51:51.678Z,97380.16
2022-09-14T21:54:18.931Z,97385.41
2022-09-14T21:56:46.560Z,97388.03
2022-09-14T21:59:14.242Z,97382.78
2022-09-14T22:01:42.068Z,97389.03
2022-09-14T22:04:09.548Z,97390.81
2022-09-14T22:06:36.826Z,97396.06
2022-09-14T22:09:04.120Z,97391.63
2022-09-14T22:11:31.391Z,97392.59
2022-09-14T22:13:58.710Z,97389.19
2022-09-14T22:16:26.123Z,97384.94
2022-09-14T22:18:53.410Z,97382.31
2022-09-14T22:21:21.660Z,97381.50
2022-09-14T22:23:49.152Z,97391.19
2022-09-14T22:26:16.464Z,97390.38
2022-09-14T22:28:43.743Z,97392.19
2022-09-14T22:31:11.014Z,97386.94
2022-09-14T22:33:38.312Z,97395.59
2022-09-14T22:36:05.597Z,97396.56
2022-09-14T22:38:32.862Z,97404.44
2022-09-14T22:41:00.203Z,97406.25
2022-09-14T22:43:27.476Z,97408.88
2022-09-14T22:45:54.801Z,97413.31
2022-09-14T22:48:22.065Z,97409.88
2022-09-14T22:50:49.288Z,97404.63
2022-09-14T22:53:16.620Z,97410.88
2022-09-14T22:55:44.041Z,97404.81
2022-09-14T22:58:11.277Z,97410.06
2022-09-14T23:00:39.040Z,97417.09
2022-09-14T23:03:06.296Z,97416.94
2022-09-14T23:05:33.518Z,97421.50
2022-09-14T23:08:00.774Z,97411.03
2022-09-14T23:10:28.159Z,97426.75
2022-09-14T23:12:55.643Z,97431.19
2022-09-14T23:15:22.933Z,97409.41
2022-09-14T23:17:52.218Z,97409.41
2022-09-14T23:20:19.631Z,97405.97
2022-09-14T23:22:46.875Z,97406.97
2022-09-14T23:25:14.141Z,97413.03
2022-09-14T23:27:41.381Z,97423.50
2022-09-14T23:30:08.587Z,97413.03
2022-09-14T23:32:35.902Z,97418.25
2022-09-14T23:35:03.140Z,97404.34
2022-09-14T23:37:30.429Z,97410.56
2022-09-14T23:39:57.749Z,97405.31
2022-09-14T23:42:25.071Z,97408.75
2022-09-14T23:44:52.325Z,97408.75
2022-09-14T23:47:19.608Z,97407.13
2022-09-14T23:49:46.871Z,97405.31
2022-09-14T23:52:14.062Z,97407.13
2022-09-14T23:54:41.306Z,97404.50
2022-09-14T23:57:08.555Z,97408.94
2022-09-14T23:59:35.792Z,97408.94
